Nearby METAR Reports

(scroll for additional cities)

KPSP - Palm Springs, California, USA
Distance from station: WNW 7mi, 11km
Updated: Sun, 22-Apr-2018 1:53pm PDT
Clear
Clear
 Wind from varies
Wind: varies 6 mph , 9 km/h
Temperature: 99°F , 37°C
Dew Point: 19°F , -7°C
Humidity: 6%
Barometer: 29.83 inHg , 1010.2 hPa
Clouds: Clear
Visibility: 10 miles , 16 km
2018/04/22 20:53 KPSP 222053Z VRB05KT 10SM CLR 37/M07 A2983 RMK AO2 SLP096 T03671072 56020
KTRM - Thermal/Palm Spg, California, USA
Distance from station: SE 16mi, 26km
Updated: Sun, 22-Apr-2018 1:52pm PDT
Clear
Clear
 Wind from SE
Wind: SE 12 mph , 19 km/h, Gust: 16 mph , 26 km/h
Temperature: 102°F , 39°C
Dew Point: 21°F , -6°C
Humidity: 5%
Barometer: 29.77 inHg , 1008.1 hPa
Clouds: Clear
Visibility: 10 miles , 16 km
2018/04/22 20:52 KTRM 222052Z AUTO 13010G14KT 10SM CLR 39/M06 A2977 RMK AO2 SLP082 T03891056 58024
 
KNXP - Twentynine Palms, California, USA
Distance from station: NNE 37mi, 60km
Updated: Sun, 22-Apr-2018 1:56pm PDT
Few Clouds
Few Clouds
 Wind from NNE
Wind: NNE 3 mph , 6 km/h
Temperature: 90°F , 32°C
Dew Point: 10°F , -12°C
Humidity: 5%
Barometer: 29.97 inHg , 1014.9 hPa
Clouds: Few Clouds
Visibility: 10 miles , 16 km
Cloud details: Few Clouds 25000 ft
2018/04/22 20:56 KNXP 222056Z 02003KT 10SM FEW250 32/M12 A2997 RMK AO2 SLP113 T03221122 58019
KL35 - Big Bear City, California, USA
Distance from station: NW 43mi, 69km
Updated: Sun, 22-Apr-2018 2:35pm PDT
Clear
Clear
 Wind from W
Wind: W 5 mph , 7 km/h
Temperature: 64°F , 18°C
Dew Point: 23°F , -5°C
Humidity: 21%
Barometer: 30.15 inHg , 1021 hPa
Clouds: Clear
Visibility: 10 miles , 16 km
2018/04/22 21:35 KL35 222135Z AUTO 27004KT 10SM CLR 18/M05 A3015 RMK AO2
 
KF70 - Murrieta/Temecula, California, USA
Distance from station: WSW 45mi, 73km
Updated: Sun, 22-Apr-2018 2:35pm PDT
Clear
Clear
 Wind from SSW
Wind: SSW 16 mph , 26 km/h, Gust: 22 mph , 35 km/h
Temperature: 84°F , 29°C
Dew Point: 45°F , 7°C
Humidity: 25%
Barometer: 29.90 inHg , 1012.5 hPa
Clouds: Clear
Visibility: 10 miles , 16 km
2018/04/22 21:35 KF70 222135Z AUTO 20014G19KT 10SM CLR 29/07 A2990 RMK AO1
KRIV - Riverside/March, California, USA
Distance from station: W 51mi, 82km
Updated: Sun, 22-Apr-2018 1:58pm PDT
Clear
Clear
 Wind from WNW
Wind: WNW 15 mph , 24 km/h, Gust: 21 mph , 33 km/h
Temperature: 88°F , 31°C
Dew Point: 34°F , 1°C
Humidity: 15%
Barometer: 29.91 inHg , 1012.9 hPa
Clouds: Clear
Visibility: 10 miles , 16 km
2018/04/22 20:58 KRIV 222058Z 29013G18KT 10SM CLR 31/01 A2991 RMK AO2A SLP118 T03100013 57013
 
KSBD - San Bernardino, California, USA
Distance from station: WNW 54mi, 86km
Updated: Sun, 22-Apr-2018 1:50pm PDT
Few Clouds
Few Clouds
 Wind from WSW
Wind: WSW 10 mph , 17 km/h
Temperature: 91°F , 33°C
Dew Point: 30°F , -1°C
Humidity: 11%
Barometer: 29.90 inHg , 1012.5 hPa
Clouds: Few Clouds
Visibility: 07 miles , 11 km
Cloud details: Few Clouds 20000 ft
2018/04/22 20:50 KSBD 222050Z 24009KT 07SM FEW200 33/M01 A2990
KRNM - Ramona, California, USA
Distance from station: SSW 60mi, 96km
Updated: Sun, 22-Apr-2018 1:53pm PDT
Clear
Clear
 Wind from W
Wind: W 16 mph , 26 km/h
Temperature: 82°F , 28°C
Dew Point: 41°F , 5°C
Humidity: 23%
Barometer: 29.94 inHg , 1013.9 hPa
Clouds: Clear
Visibility: 10 miles , 16 km
2018/04/22 20:53 KRNM 222053Z 28014KT 10SM CLR 28/05 A2994 RMK AO2 SLP125 T02830050 $
 
KRAL - Riverside, California, USA
Distance from station: W 62mi, 100km
Updated: Sun, 22-Apr-2018 1:53pm PDT
Clear
Clear
 Wind from W
Wind: W 15 mph , 24 km/h, Gust: 23 mph , 37 km/h
Temperature: 88°F , 31°C
Dew Point: 39°F , 4°C
Humidity: 18%
Barometer: 29.89 inHg , 1012.2 hPa
Clouds: Clear
Visibility: 10 miles , 16 km
2018/04/22 20:53 KRAL 222053Z 28013G20KT 10SM CLR 31/04 A2989 RMK AO2 SLP106 T03110044 56014
KOKB - Oceanside, California, USA
Distance from station: SW 68mi, 109km
Updated: Sun, 22-Apr-2018 1:52pm PDT
Clear
Clear
 Wind from W
Wind: W 10 mph , 17 km/h
Temperature: 75°F , 24°C
Dew Point: 52°F , 11°C
Humidity: 44%
Barometer: 29.91 inHg , 1012.9 hPa
Clouds: Clear
Visibility: 10 miles , 16 km
2018/04/22 20:52 KOKB 222052Z AUTO 26009KT 10SM CLR 24/11 A2991 RMK AO2 SLP129 T02390106 58005
 
KONT - Ontario, California, USA
Distance from station: WNW 71mi, 114km
Updated: Sun, 22-Apr-2018 1:53pm PDT
Few Clouds
Few Clouds
 Wind from W
Wind: W 14 mph , 22 km/h, Gust: 21 mph , 33 km/h
Temperature: 88°F , 31°C
Dew Point: 46°F , 8°C
Humidity: 24%
Barometer: 29.90 inHg , 1012.5 hPa
Clouds: Few Clouds
Visibility: 10 miles , 16 km
Cloud details: Few Clouds 25000 ft
2018/04/22 20:53 KONT 222053Z 28012G18KT 10SM FEW250 31/08 A2990 RMK AO2 SLP110 T03060078 56013
KNJK - El Centro Naf, California, USA
Distance from station: SSE 78mi, 126km
Updated: Sun, 22-Apr-2018 1:56pm PDT
Clear
Clear
 Wind from varies
Wind: varies 3 mph , 6 km/h
Temperature: 97°F , 36°C
Dew Point: 23°F , -5°C
Humidity: 7%
Barometer: 29.82 inHg , 1009.8 hPa
Clouds: Clear
Visibility: 10 miles , 16 km
2018/04/22 20:56 KNJK 222056Z AUTO VRB03KT 10SM CLR 36/M05 A2982 RMK AO2 SLP113 T03561050 56022 $
 
KSEE - San Diego/Santee, California, USA
Distance from station: SSW 74mi, 120km
Updated: Sun, 22-Apr-2018 1:50pm PDT
Clear
Clear
 Wind from WSW
Wind: WSW 12 mph , 19 km/h, Gust: 18 mph , 30 km/h
Temperature: 81°F , 27°C
Dew Point: 48°F , 9°C
Humidity: 32%
Barometer: 29.92 inHg , 1013.2 hPa
Clouds: Clear
Visibility: 10 miles , 16 km
2018/04/22 20:50 KSEE 222050Z 25010G16KT 10SM SKC 27/09 A2992
KCNO - Chino, California, USA
Distance from station: W 72mi, 116km
Updated: Sun, 22-Apr-2018 1:53pm PDT
Clear
Clear
 Wind from W
Wind: W 13 mph , 20 km/h
Temperature: 90°F , 32°C
Dew Point: 41°F , 5°C
Humidity: 18%
Barometer: 29.91 inHg , 1012.9 hPa
Clouds: Clear
Visibility: 10 miles , 16 km
2018/04/22 20:53 KCNO 222053Z 26011KT 10SM CLR 32/05 A2991 RMK AO2 SLP122 T03170050 56012